sensor_id;sensor_type;location;lat;lon;timestamp;P1;durP1;ratioP1;P2;durP2;ratioP2
15218;SDS011;15623;53.986;11.676;2022-08-14T00:01:42;5.22;;;3.00;;
15218;SDS011;15623;53.986;11.676;2022-08-14T00:04:10;5.28;;;2.65;;
15218;SDS011;15623;53.986;11.676;2022-08-14T00:06:38;3.90;;;2.67;;
15218;SDS011;15623;53.986;11.676;2022-08-14T00:09:05;4.68;;;3.10;;
15218;SDS011;15623;53.986;11.676;2022-08-14T00:11:33;3.20;;;2.60;;
15218;SDS011;15623;53.986;11.676;2022-08-14T00:14:01;3.80;;;2.95;;
15218;SDS011;15623;53.986;11.676;2022-08-14T00:16:31;6.18;;;2.70;;
15218;SDS011;15623;53.986;11.676;2022-08-14T00:18:58;7.22;;;2.70;;
15218;SDS011;15623;53.986;11.676;2022-08-14T00:21:25;3.55;;;2.80;;
15218;SDS011;15623;53.986;11.676;2022-08-14T00:23:55;5.05;;;2.60;;
15218;SDS011;15623;53.986;11.676;2022-08-14T00:26:22;10.95;;;2.45;;
15218;SDS011;15623;53.986;11.676;2022-08-14T00:28:50;5.63;;;2.47;;
15218;SDS011;15623;53.986;11.676;2022-08-14T00:31:18;5.47;;;2.58;;
15218;SDS011;15623;53.986;11.676;2022-08-14T00:33:48;5.95;;;2.58;;
15218;SDS011;15623;53.986;11.676;2022-08-14T00:36:15;4.90;;;2.67;;
15218;SDS011;15623;53.986;11.676;2022-08-14T00:38:43;3.95;;;2.70;;
15218;SDS011;15623;53.986;11.676;2022-08-14T00:41:11;5.35;;;2.67;;
15218;SDS011;15623;53.986;11.676;2022-08-14T00:43:39;5.97;;;2.78;;
15218;SDS011;15623;53.986;11.676;2022-08-14T00:46:08;3.83;;;2.80;;
15218;SDS011;15623;53.986;11.676;2022-08-14T00:48:36;4.90;;;2.75;;
15218;SDS011;15623;53.986;11.676;2022-08-14T00:51:06;11.63;;;3.03;;
15218;SDS011;15623;53.986;11.676;2022-08-14T00:53:34;5.47;;;2.72;;
15218;SDS011;15623;53.986;11.676;2022-08-14T00:56:04;2.95;;;2.72;;
15218;SDS011;15623;53.986;11.676;2022-08-14T00:58:32;2.83;;;2.58;;
15218;SDS011;15623;53.986;11.676;2022-08-14T01:01:01;4.68;;;2.65;;
15218;SDS011;15623;53.986;11.676;2022-08-14T01:03:30;7.85;;;3.22;;
15218;SDS011;15623;53.986;11.676;2022-08-14T01:14:39;3.22;;;2.83;;
15218;SDS011;15623;53.986;11.676;2022-08-14T01:17:07;4.18;;;2.63;;
15218;SDS011;15623;53.986;11.676;2022-08-14T01:19:35;4.55;;;2.80;;
15218;SDS011;15623;53.986;11.676;2022-08-14T01:25:17;7.57;;;3.20;;
15218;SDS011;15623;53.986;11.676;2022-08-14T01:27:47;6.63;;;2.70;;
15218;SDS011;15623;53.986;11.676;2022-08-14T01:30:18;4.22;;;2.80;;
15218;SDS011;15623;53.986;11.676;2022-08-14T01:32:50;3.10;;;2.80;;
15218;SDS011;15623;53.986;11.676;2022-08-14T01:35:18;7.97;;;2.97;;
15218;SDS011;15623;53.986;11.676;2022-08-14T01:37:46;6.63;;;2.80;;
15218;SDS011;15623;53.986;11.676;2022-08-14T01:40:14;7.85;;;2.80;;
15218;SDS011;15623;53.986;11.676;2022-08-14T01:42:44;10.30;;;3.00;;
15218;SDS011;15623;53.986;11.676;2022-08-14T01:45:13;6.93;;;2.92;;
15218;SDS011;15623;53.986;11.676;2022-08-14T01:47:41;3.53;;;3.20;;
15218;SDS011;15623;53.986;11.676;2022-08-14T01:50:08;9.60;;;3.30;;
15218;SDS011;15623;53.986;11.676;2022-08-14T01:52:36;6.07;;;2.83;;
15218;SDS011;15623;53.986;11.676;2022-08-14T01:55:06;4.85;;;3.10;;
15218;SDS011;15623;53.986;11.676;2022-08-14T01:57:36;8.40;;;3.20;;
15218;SDS011;15623;53.986;11.676;2022-08-14T02:00:07;6.25;;;3.80;;
15218;SDS011;15623;53.986;11.676;2022-08-14T02:02:39;5.07;;;3.28;;
15218;SDS011;15623;53.986;11.676;2022-08-14T02:05:06;8.80;;;3.20;;
15218;SDS011;15623;53.986;11.676;2022-08-14T02:07:34;4.88;;;3.10;;
15218;SDS011;15623;53.986;11.676;2022-08-14T02:10:02;8.00;;;3.10;;
15218;SDS011;15623;53.986;11.676;2022-08-14T02:12:32;5.35;;;3.47;;
15218;SDS011;15623;53.986;11.676;2022-08-14T02:14:59;6.28;;;3.20;;
15218;SDS011;15623;53.986;11.676;2022-08-14T02:17:29;5.65;;;3.80;;
15218;SDS011;15623;53.986;11.676;2022-08-14T02:19:59;11.35;;;3.67;;
15218;SDS011;15623;53.986;11.676;2022-08-14T02:22:26;7.95;;;3.50;;
15218;SDS011;15623;53.986;11.676;2022-08-14T02:24:54;8.48;;;3.33;;
15218;SDS011;15623;53.986;11.676;2022-08-14T02:27:23;8.77;;;3.92;;
15218;SDS011;15623;53.986;11.676;2022-08-14T02:29:53;5.85;;;3.28;;
15218;SDS011;15623;53.986;11.676;2022-08-14T02:32:21;7.00;;;3.42;;
15218;SDS011;15623;53.986;11.676;2022-08-14T02:34:50;12.82;;;3.75;;
15218;SDS011;15623;53.986;11.676;2022-08-14T02:37:17;6.22;;;3.63;;
15218;SDS011;15623;53.986;11.676;2022-08-14T02:39:45;6.97;;;3.67;;
15218;SDS011;15623;53.986;11.676;2022-08-14T02:42:16;8.23;;;3.60;;
15218;SDS011;15623;53.986;11.676;2022-08-14T02:44:44;9.45;;;3.80;;
15218;SDS011;15623;53.986;11.676;2022-08-14T02:47:12;4.47;;;3.55;;
15218;SDS011;15623;53.986;11.676;2022-08-14T02:49:40;9.45;;;3.58;;
15218;SDS011;15623;53.986;11.676;2022-08-14T02:52:09;5.45;;;4.00;;
15218;SDS011;15623;53.986;11.676;2022-08-14T02:54:37;5.57;;;3.55;;
15218;SDS011;15623;53.986;11.676;2022-08-14T02:57:05;9.90;;;3.70;;
15218;SDS011;15623;53.986;11.676;2022-08-14T02:59:33;6.70;;;3.78;;
15218;SDS011;15623;53.986;11.676;2022-08-14T03:04:44;7.70;;;3.50;;
15218;SDS011;15623;53.986;11.676;2022-08-14T03:07:13;5.15;;;3.45;;
15218;SDS011;15623;53.986;11.676;2022-08-14T03:09:43;6.55;;;3.50;;
15218;SDS011;15623;53.986;11.676;2022-08-14T03:12:11;4.13;;;3.72;;
15218;SDS011;15623;53.986;11.676;2022-08-14T03:14:38;6.47;;;3.33;;
15218;SDS011;15623;53.986;11.676;2022-08-14T03:17:10;5.68;;;3.47;;
15218;SDS011;15623;53.986;11.676;2022-08-14T03:19:39;4.88;;;3.35;;
15218;SDS011;15623;53.986;11.676;2022-08-14T03:22:06;4.25;;;3.60;;
15218;SDS011;15623;53.986;11.676;2022-08-14T03:24:36;4.97;;;3.50;;
15218;SDS011;15623;53.986;11.676;2022-08-14T03:27:03;5.15;;;3.80;;
15218;SDS011;15623;53.986;11.676;2022-08-14T03:29:31;8.95;;;3.97;;
15218;SDS011;15623;53.986;11.676;2022-08-14T03:31:59;7.15;;;4.38;;
15218;SDS011;15623;53.986;11.676;2022-08-14T03:34:27;6.68;;;3.72;;
15218;SDS011;15623;53.986;11.676;2022-08-14T03:36:55;4.40;;;3.50;;
15218;SDS011;15623;53.986;11.676;2022-08-14T03:39:22;4.22;;;3.80;;
15218;SDS011;15623;53.986;11.676;2022-08-14T03:41:53;5.50;;;3.92;;
15218;SDS011;15623;53.986;11.676;2022-08-14T03:44:21;5.35;;;3.90;;
15218;SDS011;15623;53.986;11.676;2022-08-14T03:46:49;7.63;;;3.85;;
15218;SDS011;15623;53.986;11.676;2022-08-14T03:49:19;5.78;;;3.95;;
15218;SDS011;15623;53.986;11.676;2022-08-14T03:51:47;5.28;;;4.13;;
15218;SDS011;15623;53.986;11.676;2022-08-14T03:54:16;8.52;;;3.90;;
15218;SDS011;15623;53.986;11.676;2022-08-14T03:56:43;5.93;;;3.80;;
15218;SDS011;15623;53.986;11.676;2022-08-14T03:59:12;7.07;;;4.07;;
15218;SDS011;15623;53.986;11.676;2022-08-14T04:01:40;5.90;;;4.07;;
15218;SDS011;15623;53.986;11.676;2022-08-14T04:04:08;6.65;;;3.88;;
15218;SDS011;15623;53.986;11.676;2022-08-14T04:06:37;7.70;;;4.15;;
15218;SDS011;15623;53.986;11.676;2022-08-14T04:09:05;9.43;;;4.03;;
15218;SDS011;15623;53.986;11.676;2022-08-14T04:11:33;4.20;;;3.80;;
15218;SDS011;15623;53.986;11.676;2022-08-14T04:14:00;4.53;;;3.95;;
15218;SDS011;15623;53.986;11.676;2022-08-14T04:16:32;5.28;;;3.85;;
15218;SDS011;15623;53.986;11.676;2022-08-14T04:19:00;6.15;;;3.53;;
15218;SDS011;15623;53.986;11.676;2022-08-14T04:21:29;4.07;;;3.40;;
15218;SDS011;15623;53.986;11.676;2022-08-14T04:23:57;5.50;;;3.33;;
15218;SDS011;15623;53.986;11.676;2022-08-14T04:26:26;7.93;;;3.95;;
15218;SDS011;15623;53.986;11.676;2022-08-14T04:28:54;9.43;;;4.00;;
15218;SDS011;15623;53.986;11.676;2022-08-14T04:31:42;5.53;;;3.25;;
15218;SDS011;15623;53.986;11.676;2022-08-14T04:34:23;7.32;;;3.50;;
15218;SDS011;15623;53.986;11.676;2022-08-14T04:36:51;6.22;;;3.40;;
15218;SDS011;15623;53.986;11.676;2022-08-14T04:39:36;5.07;;;3.10;;
15218;SDS011;15623;53.986;11.676;2022-08-14T04:42:21;5.50;;;3.40;;
15218;SDS011;15623;53.986;11.676;2022-08-14T04:45:06;7.22;;;3.38;;
15218;SDS011;15623;53.986;11.676;2022-08-14T04:47:36;9.32;;;3.20;;
15218;SDS011;15623;53.986;11.676;2022-08-14T04:50:18;6.13;;;3.00;;
15218;SDS011;15623;53.986;11.676;2022-08-14T04:52:45;9.60;;;3.13;;
15218;SDS011;15623;53.986;11.676;2022-08-14T04:55:13;6.00;;;3.20;;
15218;SDS011;15623;53.986;11.676;2022-08-14T04:57:41;7.07;;;2.90;;
15218;SDS011;15623;53.986;11.676;2022-08-14T05:00:08;5.15;;;3.00;;
15218;SDS011;15623;53.986;11.676;2022-08-14T05:02:39;5.90;;;2.90;;
15218;SDS011;15623;53.986;11.676;2022-08-14T05:05:08;5.72;;;2.85;;
15218;SDS011;15623;53.986;11.676;2022-08-14T05:07:35;6.40;;;3.28;;
15218;SDS011;15623;53.986;11.676;2022-08-14T05:10:04;4.78;;;2.78;;
15218;SDS011;15623;53.986;11.676;2022-08-14T05:12:31;6.70;;;2.80;;
15218;SDS011;15623;53.986;11.676;2022-08-14T05:14:59;7.13;;;2.80;;
15218;SDS011;15623;53.986;11.676;2022-08-14T05:17:26;9.57;;;3.30;;
15218;SDS011;15623;53.986;11.676;2022-08-14T05:20:05;5.47;;;2.80;;
15218;SDS011;15623;53.986;11.676;2022-08-14T05:22:33;5.63;;;3.03;;
15218;SDS011;15623;53.986;11.676;2022-08-14T05:25:03;4.45;;;2.75;;
15218;SDS011;15623;53.986;11.676;2022-08-14T05:27:44;5.63;;;3.17;;
15218;SDS011;15623;53.986;11.676;2022-08-14T05:30:25;3.45;;;2.95;;
15218;SDS011;15623;53.986;11.676;2022-08-14T05:33:03;5.38;;;2.97;;
15218;SDS011;15623;53.986;11.676;2022-08-14T05:35:32;6.00;;;3.20;;
15218;SDS011;15623;53.986;11.676;2022-08-14T05:38:05;5.28;;;2.80;;
15218;SDS011;15623;53.986;11.676;2022-08-14T05:40:33;4.32;;;3.08;;
15218;SDS011;15623;53.986;11.676;2022-08-14T05:43:01;4.45;;;2.80;;
15218;SDS011;15623;53.986;11.676;2022-08-14T05:45:29;6.70;;;3.20;;
15218;SDS011;15623;53.986;11.676;2022-08-14T05:47:58;7.85;;;3.22;;
15218;SDS011;15623;53.986;11.676;2022-08-14T05:50:25;5.30;;;2.92;;
15218;SDS011;15623;53.986;11.676;2022-08-14T05:52:55;7.45;;;3.30;;
15218;SDS011;15623;53.986;11.676;2022-08-14T05:55:23;3.35;;;2.67;;
15218;SDS011;15623;53.986;11.676;2022-08-14T05:57:52;4.82;;;2.90;;
15218;SDS011;15623;53.986;11.676;2022-08-14T06:00:21;7.80;;;2.70;;
15218;SDS011;15623;53.986;11.676;2022-08-14T06:02:49;9.18;;;3.20;;
15218;SDS011;15623;53.986;11.676;2022-08-14T06:05:17;5.03;;;2.92;;
15218;SDS011;15623;53.986;11.676;2022-08-14T06:07:44;3.72;;;2.60;;
15218;SDS011;15623;53.986;11.676;2022-08-14T06:10:14;3.63;;;2.83;;
15218;SDS011;15623;53.986;11.676;2022-08-14T06:12:41;3.65;;;2.78;;
15218;SDS011;15623;53.986;11.676;2022-08-14T06:15:11;4.47;;;2.80;;
15218;SDS011;15623;53.986;11.676;2022-08-14T06:17:42;4.05;;;2.97;;
15218;SDS011;15623;53.986;11.676;2022-08-14T06:20:10;7.15;;;3.15;;
15218;SDS011;15623;53.986;11.676;2022-08-14T06:22:38;4.70;;;3.10;;
15218;SDS011;15623;53.986;11.676;2022-08-14T06:25:06;7.28;;;3.70;;
15218;SDS011;15623;53.986;11.676;2022-08-14T06:27:38;4.35;;;2.90;;
15218;SDS011;15623;53.986;11.676;2022-08-14T06:30:06;5.95;;;3.00;;
15218;SDS011;15623;53.986;11.676;2022-08-14T06:32:34;8.05;;;3.10;;
15218;SDS011;15623;53.986;11.676;2022-08-14T06:35:02;7.03;;;3.50;;
15218;SDS011;15623;53.986;11.676;2022-08-14T06:37:37;7.60;;;3.30;;
15218;SDS011;15623;53.986;11.676;2022-08-14T06:40:06;5.40;;;3.22;;
15218;SDS011;15623;53.986;11.676;2022-08-14T06:42:35;7.18;;;3.72;;
15218;SDS011;15623;53.986;11.676;2022-08-14T06:45:05;5.00;;;3.20;;
15218;SDS011;15623;53.986;11.676;2022-08-14T06:47:33;5.82;;;3.80;;
15218;SDS011;15623;53.986;11.676;2022-08-14T06:50:01;6.03;;;3.38;;
15218;SDS011;15623;53.986;11.676;2022-08-14T06:52:28;5.95;;;3.83;;
15218;SDS011;15623;53.986;11.676;2022-08-14T06:54:56;8.90;;;3.55;;
15218;SDS011;15623;53.986;11.676;2022-08-14T06:57:23;9.93;;;3.70;;
15218;SDS011;15623;53.986;11.676;2022-08-14T06:59:51;8.52;;;3.72;;
15218;SDS011;15623;53.986;11.676;2022-08-14T07:02:21;4.60;;;3.47;;
15218;SDS011;15623;53.986;11.676;2022-08-14T07:05:06;5.85;;;3.40;;
15218;SDS011;15623;53.986;11.676;2022-08-14T07:07:51;6.40;;;3.30;;
15218;SDS011;15623;53.986;11.676;2022-08-14T07:10:19;6.40;;;3.08;;
15218;SDS011;15623;53.986;11.676;2022-08-14T07:12:47;5.90;;;3.45;;
15218;SDS011;15623;53.986;11.676;2022-08-14T07:15:16;7.32;;;3.50;;
15218;SDS011;15623;53.986;11.676;2022-08-14T07:17:45;9.68;;;3.50;;
15218;SDS011;15623;53.986;11.676;2022-08-14T07:20:13;4.70;;;3.25;;
15218;SDS011;15623;53.986;11.676;2022-08-14T07:22:41;7.43;;;2.78;;
15218;SDS011;15623;53.986;11.676;2022-08-14T07:25:09;4.25;;;3.50;;
15218;SDS011;15623;53.986;11.676;2022-08-14T07:27:37;7.10;;;3.60;;
15218;SDS011;15623;53.986;11.676;2022-08-14T07:30:05;6.05;;;3.28;;
15218;SDS011;15623;53.986;11.676;2022-08-14T07:32:33;4.78;;;2.97;;
15218;SDS011;15623;53.986;11.676;2022-08-14T07:35:05;5.15;;;3.00;;
15218;SDS011;15623;53.986;11.676;2022-08-14T07:37:33;6.57;;;3.10;;
15218;SDS011;15623;53.986;11.676;2022-08-14T07:40:01;7.72;;;3.05;;
15218;SDS011;15623;53.986;11.676;2022-08-14T07:42:28;3.53;;;2.90;;
15218;SDS011;15623;53.986;11.676;2022-08-14T07:44:56;4.15;;;3.20;;
15218;SDS011;15623;53.986;11.676;2022-08-14T07:47:24;6.85;;;3.05;;
15218;SDS011;15623;53.986;11.676;2022-08-14T07:49:55;9.45;;;3.20;;
15218;SDS011;15623;53.986;11.676;2022-08-14T07:52:26;4.72;;;3.17;;
15218;SDS011;15623;53.986;11.676;2022-08-14T07:54:53;3.78;;;3.00;;
15218;SDS011;15623;53.986;11.676;2022-08-14T07:57:22;3.63;;;3.30;;
15218;SDS011;15623;53.986;11.676;2022-08-14T07:59:51;3.58;;;2.90;;
15218;SDS011;15623;53.986;11.676;2022-08-14T08:02:19;5.75;;;3.17;;
15218;SDS011;15623;53.986;11.676;2022-08-14T08:04:48;5.88;;;3.40;;
15218;SDS011;15623;53.986;11.676;2022-08-14T08:07:16;5.32;;;3.45;;
15218;SDS011;15623;53.986;11.676;2022-08-14T08:09:47;5.53;;;3.40;;
15218;SDS011;15623;53.986;11.676;2022-08-14T08:12:15;4.88;;;3.40;;
15218;SDS011;15623;53.986;11.676;2022-08-14T08:14:43;10.77;;;3.38;;
15218;SDS011;15623;53.986;11.676;2022-08-14T08:17:11;10.70;;;3.60;;
15218;SDS011;15623;53.986;11.676;2022-08-14T08:19:39;6.72;;;3.38;;
15218;SDS011;15623;53.986;11.676;2022-08-14T08:22:07;9.18;;;3.40;;
15218;SDS011;15623;53.986;11.676;2022-08-14T08:24:34;7.47;;;3.28;;
15218;SDS011;15623;53.986;11.676;2022-08-14T08:27:14;8.23;;;3.53;;
15218;SDS011;15623;53.986;11.676;2022-08-14T08:29:42;6.57;;;3.30;;
15218;SDS011;15623;53.986;11.676;2022-08-14T08:32:09;4.30;;;3.22;;
15218;SDS011;15623;53.986;11.676;2022-08-14T08:34:43;8.25;;;3.42;;
15218;SDS011;15623;53.986;11.676;2022-08-14T08:37:12;5.53;;;3.70;;
15218;SDS011;15623;53.986;11.676;2022-08-14T08:39:43;3.90;;;3.60;;
15218;SDS011;15623;53.986;11.676;2022-08-14T08:42:13;4.10;;;3.70;;
15218;SDS011;15623;53.986;11.676;2022-08-14T08:44:52;13.75;;;4.30;;
15218;SDS011;15623;53.986;11.676;2022-08-14T08:47:20;5.13;;;3.58;;
15218;SDS011;15623;53.986;11.676;2022-08-14T08:49:47;9.80;;;4.00;;
15218;SDS011;15623;53.986;11.676;2022-08-14T08:52:16;4.70;;;3.80;;
15218;SDS011;15623;53.986;11.676;2022-08-14T08:54:51;7.13;;;3.63;;
15218;SDS011;15623;53.986;11.676;2022-08-14T08:57:21;5.10;;;4.30;;
15218;SDS011;15623;53.986;11.676;2022-08-14T08:59:49;8.23;;;4.00;;
15218;SDS011;15623;53.986;11.676;2022-08-14T09:02:17;6.00;;;3.90;;
15218;SDS011;15623;53.986;11.676;2022-08-14T09:04:45;7.57;;;3.80;;
15218;SDS011;15623;53.986;11.676;2022-08-14T09:07:12;7.00;;;4.10;;
15218;SDS011;15623;53.986;11.676;2022-08-14T09:09:40;5.05;;;4.00;;
15218;SDS011;15623;53.986;11.676;2022-08-14T09:12:16;3.90;;;3.65;;
15218;SDS011;15623;53.986;11.676;2022-08-14T09:14:48;4.65;;;3.58;;
15218;SDS011;15623;53.986;11.676;2022-08-14T09:17:17;4.57;;;3.30;;
15218;SDS011;15623;53.986;11.676;2022-08-14T09:19:44;6.78;;;3.67;;
15218;SDS011;15623;53.986;11.676;2022-08-14T09:22:13;4.90;;;3.25;;
15218;SDS011;15623;53.986;11.676;2022-08-14T09:24:40;4.45;;;3.00;;
15218;SDS011;15623;53.986;11.676;2022-08-14T09:27:11;4.07;;;3.45;;
15218;SDS011;15623;53.986;11.676;2022-08-14T09:29:39;5.85;;;3.38;;
15218;SDS011;15623;53.986;11.676;2022-08-14T09:32:08;5.03;;;3.60;;
15218;SDS011;15623;53.986;11.676;2022-08-14T09:34:43;4.28;;;3.88;;
15218;SDS011;15623;53.986;11.676;2022-08-14T09:37:21;4.60;;;3.38;;
15218;SDS011;15623;53.986;11.676;2022-08-14T09:39:56;3.85;;;3.30;;
15218;SDS011;15623;53.986;11.676;2022-08-14T09:42:31;15.13;;;3.85;;
15218;SDS011;15623;53.986;11.676;2022-08-14T09:45:03;5.47;;;3.40;;
15218;SDS011;15623;53.986;11.676;2022-08-14T09:47:46;3.38;;;3.08;;
15218;SDS011;15623;53.986;11.676;2022-08-14T09:50:15;3.50;;;3.10;;
15218;SDS011;15623;53.986;11.676;2022-08-14T09:52:47;3.80;;;3.33;;
15218;SDS011;15623;53.986;11.676;2022-08-14T09:55:15;4.97;;;3.00;;
15218;SDS011;15623;53.986;11.676;2022-08-14T09:57:43;3.65;;;2.95;;
15218;SDS011;15623;53.986;11.676;2022-08-14T10:00:12;3.63;;;3.33;;
15218;SDS011;15623;53.986;11.676;2022-08-14T10:02:51;4.60;;;2.97;;
15218;SDS011;15623;53.986;11.676;2022-08-14T10:05:28;3.42;;;3.13;;
15218;SDS011;15623;53.986;11.676;2022-08-14T10:07:58;5.72;;;3.20;;
15218;SDS011;15623;53.986;11.676;2022-08-14T10:10:26;4.20;;;3.00;;
15218;SDS011;15623;53.986;11.676;2022-08-14T10:12:54;5.25;;;3.05;;
15218;SDS011;15623;53.986;11.676;2022-08-14T10:15:22;3.42;;;3.00;;
15218;SDS011;15623;53.986;11.676;2022-08-14T10:18:03;5.70;;;3.10;;
15218;SDS011;15623;53.986;11.676;2022-08-14T10:20:32;7.07;;;3.30;;
15218;SDS011;15623;53.986;11.676;2022-08-14T10:23:07;5.97;;;2.90;;
15218;SDS011;15623;53.986;11.676;2022-08-14T10:25:38;4.90;;;2.72;;
15218;SDS011;15623;53.986;11.676;2022-08-14T10:28:07;6.03;;;2.55;;
15218;SDS011;15623;53.986;11.676;2022-08-14T10:30:40;4.90;;;3.00;;
15218;SDS011;15623;53.986;11.676;2022-08-14T10:33:09;4.75;;;2.78;;
15218;SDS011;15623;53.986;11.676;2022-08-14T10:35:40;4.00;;;2.90;;
15218;SDS011;15623;53.986;11.676;2022-08-14T10:38:08;4.10;;;3.20;;
15218;SDS011;15623;53.986;11.676;2022-08-14T10:40:36;3.78;;;2.67;;
15218;SDS011;15623;53.986;11.676;2022-08-14T10:43:17;5.53;;;2.70;;
15218;SDS011;15623;53.986;11.676;2022-08-14T10:45:51;3.28;;;2.80;;
15218;SDS011;15623;53.986;11.676;2022-08-14T10:48:20;5.68;;;2.60;;
15218;SDS011;15623;53.986;11.676;2022-08-14T10:50:48;6.00;;;2.90;;
15218;SDS011;15623;53.986;11.676;2022-08-14T10:53:30;5.30;;;2.85;;
15218;SDS011;15623;53.986;11.676;2022-08-14T10:56:01;4.32;;;2.75;;
15218;SDS011;15623;53.986;11.676;2022-08-14T10:58:31;3.50;;;2.90;;
15218;SDS011;15623;53.986;11.676;2022-08-14T11:00:59;4.85;;;2.90;;
15218;SDS011;15623;53.986;11.676;2022-08-14T11:03:37;4.90;;;3.03;;
15218;SDS011;15623;53.986;11.676;2022-08-14T11:06:12;3.35;;;3.05;;
15218;SDS011;15623;53.986;11.676;2022-08-14T11:08:44;3.00;;;2.80;;
15218;SDS011;15623;53.986;11.676;2022-08-14T11:11:11;4.10;;;2.95;;
15218;SDS011;15623;53.986;11.676;2022-08-14T11:13:39;4.72;;;3.00;;
15218;SDS011;15623;53.986;11.676;2022-08-14T11:16:10;3.10;;;2.90;;
15218;SDS011;15623;53.986;11.676;2022-08-14T11:18:40;2.90;;;2.70;;
15218;SDS011;15623;53.986;11.676;2022-08-14T11:21:11;3.85;;;2.80;;
15218;SDS011;15623;53.986;11.676;2022-08-14T11:23:40;2.85;;;2.65;;
15218;SDS011;15623;53.986;11.676;2022-08-14T11:26:08;3.13;;;2.50;;
15218;SDS011;15623;53.986;11.676;2022-08-14T11:28:38;3.88;;;2.38;;
15218;SDS011;15623;53.986;11.676;2022-08-14T11:31:07;4.13;;;1.90;;
15218;SDS011;15623;53.986;11.676;2022-08-14T11:33:35;2.25;;;2.00;;
15218;SDS011;15623;53.986;11.676;2022-08-14T11:36:05;3.05;;;2.30;;
15218;SDS011;15623;53.986;11.676;2022-08-14T11:38:37;5.00;;;2.20;;
15218;SDS011;15623;53.986;11.676;2022-08-14T11:41:05;1.98;;;1.80;;
15218;SDS011;15623;53.986;11.676;2022-08-14T11:43:37;5.03;;;2.15;;
15218;SDS011;15623;53.986;11.676;2022-08-14T11:46:05;4.95;;;2.10;;
15218;SDS011;15623;53.986;11.676;2022-08-14T11:48:43;22.75;;;3.20;;
15218;SDS011;15623;53.986;11.676;2022-08-14T11:51:13;7.53;;;2.60;;
15218;SDS011;15623;53.986;11.676;2022-08-14T11:53:49;3.50;;;2.50;;
15218;SDS011;15623;53.986;11.676;2022-08-14T11:56:16;4.25;;;2.50;;
15218;SDS011;15623;53.986;11.676;2022-08-14T11:58:48;6.38;;;2.50;;
15218;SDS011;15623;53.986;11.676;2022-08-14T12:01:17;16.60;;;2.88;;
15218;SDS011;15623;53.986;11.676;2022-08-14T12:03:51;4.13;;;2.40;;
15218;SDS011;15623;53.986;11.676;2022-08-14T12:06:22;21.00;;;3.15;;
15218;SDS011;15623;53.986;11.676;2022-08-14T12:08:49;2.80;;;2.58;;
15218;SDS011;15623;53.986;11.676;2022-08-14T12:11:18;6.40;;;3.08;;
15218;SDS011;15623;53.986;11.676;2022-08-14T12:13:45;4.45;;;2.80;;
15218;SDS011;15623;53.986;11.676;2022-08-14T12:16:13;5.50;;;2.70;;
15218;SDS011;15623;53.986;11.676;2022-08-14T12:18:42;2.72;;;2.60;;
15218;SDS011;15623;53.986;11.676;2022-08-14T12:21:15;5.60;;;2.92;;
15218;SDS011;15623;53.986;11.676;2022-08-14T12:23:45;4.00;;;3.30;;
15218;SDS011;15623;53.986;11.676;2022-08-14T12:26:14;5.20;;;2.63;;
15218;SDS011;15623;53.986;11.676;2022-08-14T12:28:47;4.88;;;3.10;;
15218;SDS011;15623;53.986;11.676;2022-08-14T12:31:16;3.72;;;3.15;;
15218;SDS011;15623;53.986;11.676;2022-08-14T12:33:54;4.32;;;3.38;;
15218;SDS011;15623;53.986;11.676;2022-08-14T12:36:23;27.40;;;4.80;;
15218;SDS011;15623;53.986;11.676;2022-08-14T12:38:57;3.65;;;3.28;;
15218;SDS011;15623;53.986;11.676;2022-08-14T12:41:26;5.68;;;3.33;;
15218;SDS011;15623;53.986;11.676;2022-08-14T12:43:59;4.78;;;3.85;;
15218;SDS011;15623;53.986;11.676;2022-08-14T12:46:35;4.43;;;4.07;;
15218;SDS011;15623;53.986;11.676;2022-08-14T12:49:07;17.40;;;4.30;;
15218;SDS011;15623;53.986;11.676;2022-08-14T12:51:40;4.45;;;4.15;;
15218;SDS011;15623;53.986;11.676;2022-08-14T12:54:12;6.60;;;4.10;;
15218;SDS011;15623;53.986;11.676;2022-08-14T12:56:40;4.30;;;4.00;;
15218;SDS011;15623;53.986;11.676;2022-08-14T12:59:08;4.20;;;3.80;;
15218;SDS011;15623;53.986;11.676;2022-08-14T13:01:36;4.45;;;4.03;;
15218;SDS011;15623;53.986;11.676;2022-08-14T13:04:05;4.93;;;4.55;;
15218;SDS011;15623;53.986;11.676;2022-08-14T13:06:33;5.03;;;4.65;;
15218;SDS011;15623;53.986;11.676;2022-08-14T13:09:01;5.93;;;4.53;;
15218;SDS011;15623;53.986;11.676;2022-08-14T13:11:32;4.20;;;3.80;;
15218;SDS011;15623;53.986;11.676;2022-08-14T13:14:01;5.15;;;4.50;;
15218;SDS011;15623;53.986;11.676;2022-08-14T13:16:29;4.43;;;4.05;;
15218;SDS011;15623;53.986;11.676;2022-08-14T13:18:57;4.22;;;3.97;;
15218;SDS011;15623;53.986;11.676;2022-08-14T13:21:25;4.75;;;3.95;;
15218;SDS011;15623;53.986;11.676;2022-08-14T13:23:56;6.15;;;4.30;;
15218;SDS011;15623;53.986;11.676;2022-08-14T13:26:23;5.25;;;4.93;;
15218;SDS011;15623;53.986;11.676;2022-08-14T13:28:53;6.22;;;4.30;;
15218;SDS011;15623;53.986;11.676;2022-08-14T13:31:22;6.65;;;4.53;;
15218;SDS011;15623;53.986;11.676;2022-08-14T13:33:51;4.80;;;4.40;;
15218;SDS011;15623;53.986;11.676;2022-08-14T13:36:19;4.75;;;4.35;;
15218;SDS011;15623;53.986;11.676;2022-08-14T13:38:46;5.00;;;4.57;;
15218;SDS011;15623;53.986;11.676;2022-08-14T13:41:15;5.70;;;5.20;;
15218;SDS011;15623;53.986;11.676;2022-08-14T13:43:47;6.30;;;5.28;;
15218;SDS011;15623;53.986;11.676;2022-08-14T13:46:17;6.35;;;4.90;;
15218;SDS011;15623;53.986;11.676;2022-08-14T13:48:44;6.80;;;4.60;;
15218;SDS011;15623;53.986;11.676;2022-08-14T13:51:14;4.72;;;4.43;;
15218;SDS011;15623;53.986;11.676;2022-08-14T13:53:44;11.20;;;4.40;;
15218;SDS011;15623;53.986;11.676;2022-08-14T13:56:12;7.32;;;4.50;;
15218;SDS011;15623;53.986;11.676;2022-08-14T13:58:40;4.57;;;4.20;;
15218;SDS011;15623;53.986;11.676;2022-08-14T14:01:09;4.82;;;4.13;;
15218;SDS011;15623;53.986;11.676;2022-08-14T14:03:38;5.03;;;4.53;;
15218;SDS011;15623;53.986;11.676;2022-08-14T14:06:06;7.85;;;4.80;;
15218;SDS011;15623;53.986;11.676;2022-08-14T14:08:34;5.20;;;4.60;;
15218;SDS011;15623;53.986;11.676;2022-08-14T14:11:02;5.40;;;5.00;;
15218;SDS011;15623;53.986;11.676;2022-08-14T14:13:29;6.55;;;5.10;;
15218;SDS011;15623;53.986;11.676;2022-08-14T14:15:59;6.03;;;5.32;;
15218;SDS011;15623;53.986;11.676;2022-08-14T14:18:29;7.80;;;5.60;;
15218;SDS011;15623;53.986;11.676;2022-08-14T14:20:59;7.38;;;5.18;;
15218;SDS011;15623;53.986;11.676;2022-08-14T14:23:31;5.53;;;5.20;;
15218;SDS011;15623;53.986;11.676;2022-08-14T14:26:00;5.55;;;5.10;;
15218;SDS011;15623;53.986;11.676;2022-08-14T14:28:30;5.90;;;5.28;;
15218;SDS011;15623;53.986;11.676;2022-08-14T14:30:58;5.60;;;5.30;;
15218;SDS011;15623;53.986;11.676;2022-08-14T14:33:27;6.03;;;5.43;;
15218;SDS011;15623;53.986;11.676;2022-08-14T14:35:59;6.50;;;5.70;;
15218;SDS011;15623;53.986;11.676;2022-08-14T14:38:29;9.77;;;6.00;;
15218;SDS011;15623;53.986;11.676;2022-08-14T14:40:58;6.10;;;5.20;;
15218;SDS011;15623;53.986;11.676;2022-08-14T14:43:27;5.75;;;5.13;;
15218;SDS011;15623;53.986;11.676;2022-08-14T14:45:55;5.70;;;5.20;;
15218;SDS011;15623;53.986;11.676;2022-08-14T14:48:23;5.03;;;4.53;;
15218;SDS011;15623;53.986;11.676;2022-08-14T14:50:53;6.03;;;4.55;;
15218;SDS011;15623;53.986;11.676;2022-08-14T14:53:30;5.72;;;4.35;;
15218;SDS011;15623;53.986;11.676;2022-08-14T14:55:59;5.80;;;4.28;;
15218;SDS011;15623;53.986;11.676;2022-08-14T14:58:27;3.60;;;3.30;;
15218;SDS011;15623;53.986;11.676;2022-08-14T15:00:56;3.78;;;3.45;;
15218;SDS011;15623;53.986;11.676;2022-08-14T15:03:24;3.70;;;3.13;;